createdAt,value
2023-05-14T00:01:01.492Z,100494.38
2023-05-14T00:06:02.753Z,100496.88
2023-05-14T00:11:03.921Z,100491.50
2023-05-14T00:16:05.189Z,100487.19
2023-05-14T00:21:06.393Z,100492.22
2023-05-14T00:26:07.595Z,100486.38
2023-05-14T00:31:08.894Z,100484.66
2023-05-14T00:36:10.153Z,100488.72
2023-05-14T00:41:11.346Z,100481.84
2023-05-14T00:46:12.614Z,100480.69
2023-05-14T00:51:13.893Z,100477.69
2023-05-14T00:56:15.081Z,100466.53
2023-05-14T01:01:16.626Z,100460.56
2023-05-14T01:06:17.890Z,100462.47
2023-05-14T01:11:19.067Z,100465.91
2023-05-14T01:16:20.362Z,100459.88
2023-05-14T01:21:21.561Z,100455.47
2023-05-14T01:26:22.785Z,100416.75
2023-05-14T01:31:27.736Z,100451.63
2023-05-14T01:36:29.114Z,100444.88
2023-05-14T01:41:30.328Z,100440.25
2023-05-14T01:46:31.602Z,100433.00
2023-05-14T01:51:32.857Z,100432.56
2023-05-14T01:56:34.071Z,100438.34
2023-05-14T02:01:35.268Z,100438.34
2023-05-14T02:06:36.557Z,100434.78
2023-05-14T02:11:37.779Z,100434.84
2023-05-14T02:16:39.011Z,100422.84
2023-05-14T02:21:40.266Z,100431.53
2023-05-14T02:26:42.036Z,100433.31
2023-05-14T02:31:43.612Z,100428.69
2023-05-14T02:36:44.831Z,100430.75
2023-05-14T02:41:45.987Z,100418.78
2023-05-14T02:46:47.226Z,100419.34
2023-05-14T02:51:48.445Z,100408.53
2023-05-14T02:56:49.606Z,100420.91
2023-05-14T03:01:50.874Z,100420.41
2023-05-14T03:06:52.564Z,100425.19
2023-05-14T03:11:53.769Z,100421.56
2023-05-14T03:16:54.952Z,100423.69
2023-05-14T03:21:56.163Z,100426.13
2023-05-14T03:26:57.330Z,100427.25
2023-05-14T03:31:58.542Z,100424.72
2023-05-14T03:36:59.757Z,100411.66
2023-05-14T03:42:00.949Z,100411.34
2023-05-14T03:47:02.212Z,100411.88
2023-05-14T03:52:03.391Z,100413.75
2023-05-14T03:57:04.588Z,100425.03
2023-05-14T04:02:05.928Z,100417.66
2023-05-14T04:07:07.320Z,100411.41
2023-05-14T04:12:08.576Z,100418.28
2023-05-14T04:17:09.793Z,100414.03
2023-05-14T04:22:10.960Z,100416.88
2023-05-14T04:27:12.330Z,100421.03
2023-05-14T04:32:14.699Z,100414.41
2023-05-14T04:37:16.068Z,100413.59
2023-05-14T04:42:17.261Z,100415.41
2023-05-14T04:47:18.499Z,100421.88
2023-05-14T04:52:19.749Z,100416.09
2023-05-14T04:57:21.085Z,100422.00
2023-05-14T05:02:22.335Z,100421.91
2023-05-14T05:07:23.552Z,100410.28
2023-05-14T05:12:24.792Z,100424.84
2023-05-14T05:17:26.049Z,100425.50
2023-05-14T05:22:27.268Z,100419.66
2023-05-14T05:27:28.449Z,100415.00
2023-05-14T05:32:29.815Z,100414.25
2023-05-14T05:37:30.978Z,100420.34
2023-05-14T05:42:32.196Z,100420.34
2023-05-14T05:47:33.402Z,100424.03
2023-05-14T05:52:34.665Z,100417.47
2023-05-14T05:57:35.825Z,100428.84
2023-05-14T06:02:37.090Z,100430.25
2023-05-14T06:07:38.341Z,100425.94
2023-05-14T06:12:40.387Z,100425.94
2023-05-14T06:17:41.668Z,100435.69
2023-05-14T06:22:43.001Z,100444.06
2023-05-14T06:27:44.219Z,100429.69
2023-05-14T06:32:45.451Z,100438.56
2023-05-14T06:37:46.669Z,100433.66
2023-05-14T06:42:47.888Z,100442.31
2023-05-14T06:47:49.077Z,100444.13
2023-05-14T06:52:50.246Z,100430.66
2023-05-14T06:57:51.428Z,100433.78
2023-05-14T07:02:52.680Z,100427.41
2023-05-14T07:07:53.891Z,100426.78
2023-05-14T07:12:55.065Z,100432.28
2023-05-14T07:17:56.463Z,100426.72
2023-05-14T07:22:57.741Z,100419.84
2023-05-14T07:27:58.887Z,100418.88
2023-05-14T07:33:00.239Z,100419.44
2023-05-14T07:38:01.487Z,100401.06
2023-05-14T07:43:02.690Z,100402.84
2023-05-14T07:48:03.906Z,100406.28
2023-05-14T07:53:05.229Z,100405.09
2023-05-14T07:58:06.618Z,100404.19
2023-05-14T08:03:07.912Z,100406.72
2023-05-14T08:08:09.204Z,100408.41
2023-05-14T08:13:10.814Z,100412.41
2023-05-14T08:18:12.119Z,100409.38
2023-05-14T08:23:13.410Z,100413.06
2023-05-14T08:28:14.819Z,100411.44
2023-05-14T08:33:16.077Z,100404.28
2023-05-14T08:38:17.283Z,100400.81
2023-05-14T08:43:18.495Z,100398.00
2023-05-14T08:48:19.803Z,100409.06
2023-05-14T08:53:21.087Z,100397.09
2023-05-14T08:58:22.248Z,100398.31
2023-05-14T09:03:23.608Z,100399.63
2023-05-14T09:08:24.747Z,100364.16
2023-05-14T09:13:28.081Z,100394.94
2023-05-14T09:18:29.517Z,100404.69
2023-05-14T09:23:30.720Z,100390.44
2023-05-14T09:28:31.908Z,100379.16
2023-05-14T09:33:33.320Z,100380.66
2023-05-14T09:38:34.487Z,100377.25
2023-05-14T09:43:35.694Z,100366.66
2023-05-14T09:48:36.970Z,100363.09
2023-05-14T09:53:38.181Z,100355.53
2023-05-14T09:58:39.457Z,100358.72
2023-05-14T10:03:40.616Z,100347.66
2023-05-14T10:08:41.898Z,100345.13
2023-05-14T10:13:43.062Z,100337.38
2023-05-14T10:18:46.263Z,100328.94
2023-05-14T10:23:47.520Z,100331.69
2023-05-14T10:28:48.729Z,100312.44
2023-05-14T10:33:50.470Z,100321.22
2023-05-14T10:38:51.705Z,100307.44
2023-05-14T10:43:52.941Z,100303.50
2023-05-14T10:48:54.151Z,100299.69
2023-05-14T10:53:55.354Z,100292.56
2023-05-14T10:58:56.489Z,100290.91
2023-05-14T11:03:57.805Z,100289.81
2023-05-14T11:08:59.031Z,100279.03
2023-05-14T11:14:00.255Z,100280.78
2023-05-14T11:19:02.890Z,100269.09
2023-05-14T11:24:05.405Z,100269.72
2023-05-14T11:29:06.926Z,100262.31
2023-05-14T11:34:08.130Z,100252.75
2023-05-14T11:39:09.341Z,100250.81
2023-05-14T11:44:10.665Z,100244.28
2023-05-14T11:49:11.823Z,100244.50
2023-05-14T11:54:13.036Z,100240.78
2023-05-14T11:59:14.269Z,100230.50
2023-05-14T12:04:15.592Z,100220.22
2023-05-14T12:09:17.526Z,100216.81
2023-05-14T12:14:18.690Z,100209.88
2023-05-14T12:19:20.662Z,100206.97
2023-05-14T12:24:21.988Z,100195.25
2023-05-14T12:29:23.264Z,100184.88
2023-05-14T12:34:24.456Z,100183.16
2023-05-14T12:39:25.692Z,100181.78
2023-05-14T12:44:26.900Z,100171.88
2023-05-14T12:49:28.137Z,100166.78
2023-05-14T12:54:29.408Z,100171.41
2023-05-14T12:59:30.913Z,100169.69
2023-05-14T13:04:32.180Z,100163.88
2023-05-14T13:09:33.458Z,100158.56
2023-05-14T13:14:36.256Z,100150.41
2023-05-14T13:19:37.468Z,100147.97
2023-05-14T13:24:38.878Z,100137.97
2023-05-14T13:29:40.178Z,100132.47
2023-05-14T13:34:41.434Z,100138.59
2023-05-14T13:39:42.571Z,100132.13
2023-05-14T13:44:43.801Z,100119.44
2023-05-14T13:49:44.943Z,100129.28
2023-05-14T13:54:46.219Z,100118.06
2023-05-14T13:59:47.690Z,100119.16
2023-05-14T14:04:49.438Z,100115.53
2023-05-14T14:09:50.764Z,100112.56
2023-05-14T14:14:52.846Z,100101.84
2023-05-14T14:19:54.062Z,100094.84
2023-05-14T14:24:55.319Z,100100.34
2023-05-14T14:29:56.794Z,100089.25
2023-05-14T14:34:57.944Z,100083.66
2023-05-14T14:39:59.154Z,100078.69
2023-05-14T14:45:00.330Z,100084.28
2023-05-14T14:50:01.568Z,100078.72
2023-05-14T14:55:02.747Z,100080.19
2023-05-14T15:00:03.993Z,100081.66
2023-05-14T15:05:05.363Z,100069.66
2023-05-14T15:10:06.648Z,100072.44
2023-05-14T15:15:07.851Z,100065.41
2023-05-14T15:20:09.080Z,100072.59
2023-05-14T15:25:10.554Z,100072.28
2023-05-14T15:30:11.773Z,100064.94
2023-05-14T15:35:12.943Z,100060.94
2023-05-14T15:40:14.191Z,100056.28
2023-05-14T15:45:15.441Z,100051.63
2023-05-14T15:50:16.651Z,100044.78
2023-05-14T15:55:17.808Z,100049.34
2023-05-14T16:00:19.483Z,100050.94
2023-05-14T16:05:20.830Z,100046.81
2023-05-14T16:10:22.317Z,100041.88
2023-05-14T16:15:23.716Z,100042.22
2023-05-14T16:20:25.190Z,100046.88
2023-05-14T16:25:26.588Z,100049.53
2023-05-14T16:30:27.796Z,100048.69
2023-05-14T16:35:29.004Z,100050.22
2023-05-14T16:40:30.292Z,100046.91
2023-05-14T16:45:32.637Z,100042.75
2023-05-14T16:50:33.877Z,100041.72
2023-05-14T16:55:35.139Z,100054.13
2023-05-14T17:00:36.364Z,100049.09
2023-05-14T17:05:37.510Z,100053.09
2023-05-14T17:10:38.704Z,100050.44
2023-05-14T17:15:41.770Z,100048.38
2023-05-14T17:20:42.981Z,100057.69
2023-05-14T17:25:44.138Z,100050.19
2023-05-14T17:30:45.331Z,100054.19
2023-05-14T17:35:46.846Z,100053.94
2023-05-14T17:40:48.098Z,100056.06
2023-05-14T17:45:54.353Z,100062.78
2023-05-14T17:50:55.807Z,100054.19
2023-05-14T17:55:56.970Z,100060.81
2023-05-14T18:00:58.267Z,100069.78
2023-05-14T18:06:00.669Z,100072.59
2023-05-14T18:11:01.913Z,100075.78
2023-05-14T18:16:03.749Z,100082.69
2023-05-14T18:21:04.909Z,100077.97
2023-05-14T18:26:06.047Z,100083.16
2023-05-14T18:31:07.354Z,100080.59
2023-05-14T18:36:08.661Z,100077.63
2023-05-14T18:41:09.912Z,100087.25
2023-05-14T18:46:12.284Z,100079.28
2023-05-14T18:51:13.554Z,100089.03
2023-05-14T18:56:14.781Z,100095.88
2023-05-14T19:01:15.970Z,100096.53
2023-05-14T19:06:17.191Z,100093.94
2023-05-14T19:11:18.361Z,100097.34
2023-05-14T19:16:19.571Z,100098.00
2023-05-14T19:21:20.770Z,100087.06
2023-05-14T19:26:21.992Z,100097.38
2023-05-14T19:31:23.284Z,100035.81
2023-05-14T19:36:24.714Z,100112.78
2023-05-14T19:41:26.162Z,100128.59
2023-05-14T19:46:27.454Z,100125.53
2023-05-14T19:51:28.681Z,100121.78
2023-05-14T19:56:29.905Z,100128.19
2023-05-14T20:01:32.231Z,100131.31
2023-05-14T20:06:34.219Z,100130.75
2023-05-14T20:11:35.466Z,100139.69
2023-05-14T20:16:36.788Z,100129.75
2023-05-14T20:21:37.982Z,100126.44
2023-05-14T20:26:39.273Z,100126.16
2023-05-14T20:31:40.490Z,100127.38
2023-05-14T20:36:41.785Z,100121.06
2023-05-14T20:41:45.043Z,100116.97
2023-05-14T20:46:46.309Z,100127.66
2023-05-14T20:51:47.523Z,100120.13
2023-05-14T20:56:48.734Z,100117.25
2023-05-14T21:01:50.006Z,100129.34
2023-05-14T21:06:51.295Z,100122.75
2023-05-14T21:11:52.482Z,100122.75
2023-05-14T21:16:53.668Z,100125.38
2023-05-14T21:21:54.842Z,100115.19
2023-05-14T21:26:55.984Z,100111.97
2023-05-14T21:31:57.185Z,100106.44
2023-05-14T21:36:58.422Z,100107.72
2023-05-14T21:41:59.588Z,100104.81
2023-05-14T21:47:01.123Z,100100.66
2023-05-14T21:52:02.392Z,100100.53
2023-05-14T21:57:03.640Z,100094.81
2023-05-14T22:02:07.572Z,100093.97
2023-05-14T22:07:09.105Z,100093.63
2023-05-14T22:12:10.557Z,100088.84
2023-05-14T22:17:12.696Z,100088.28
2023-05-14T22:22:13.853Z,100086.00
2023-05-14T22:27:15.053Z,100083.56
2023-05-14T22:32:16.273Z,100074.19
2023-05-14T22:37:17.478Z,100078.47
2023-05-14T22:42:20.168Z,100077.72
2023-05-14T22:47:21.391Z,100074.97
2023-05-14T22:52:22.586Z,100064.28
2023-05-14T22:57:23.797Z,100053.72
2023-05-14T23:02:24.964Z,100049.09
2023-05-14T23:07:26.103Z,100048.03
2023-05-14T23:12:27.328Z,100045.75
2023-05-14T23:17:28.672Z,100048.38
2023-05-14T23:22:29.946Z,100040.16
2023-05-14T23:27:31.181Z,100042.19
2023-05-14T23:32:32.343Z,100033.97
2023-05-14T23:37:33.724Z,100036.16
2023-05-14T23:42:34.878Z,100037.38
2023-05-14T23:47:36.134Z,100028.53
2023-05-14T23:52:37.308Z,100016.25
2023-05-14T23:57:38.518Z,100014.06
